sensor_id;sensor_type;location;lat;lon;timestamp;temperature;humidity
21495;DHT22;10909;53.590;10.054;2022-09-02T00:00:47;18.20;51.00
21495;DHT22;10909;53.590;10.054;2022-09-02T00:03:13;18.20;51.20
21495;DHT22;10909;53.590;10.054;2022-09-02T00:05:39;18.20;51.10
21495;DHT22;10909;53.590;10.054;2022-09-02T00:08:06;18.10;51.00
21495;DHT22;10909;53.590;10.054;2022-09-02T00:10:35;18.10;51.20
21495;DHT22;10909;53.590;10.054;2022-09-02T00:13:02;18.10;51.30
21495;DHT22;10909;53.590;10.054;2022-09-02T00:15:28;18.10;51.30
21495;DHT22;10909;53.590;10.054;2022-09-02T00:17:54;18.10;51.30
21495;DHT22;10909;53.590;10.054;2022-09-02T00:20:20;18.00;51.30
21495;DHT22;10909;53.590;10.054;2022-09-02T00:22:46;18.00;51.30
21495;DHT22;10909;53.590;10.054;2022-09-02T00:25:12;18.00;51.50
21495;DHT22;10909;53.590;10.054;2022-09-02T00:27:37;18.00;51.50
21495;DHT22;10909;53.590;10.054;2022-09-02T00:30:04;17.90;51.50
21495;DHT22;10909;53.590;10.054;2022-09-02T00:32:30;17.90;51.60
21495;DHT22;10909;53.590;10.054;2022-09-02T00:34:56;17.90;51.70
21495;DHT22;10909;53.590;10.054;2022-09-02T00:37:24;17.80;51.60
21495;DHT22;10909;53.590;10.054;2022-09-02T00:39:51;17.90;51.80
21495;DHT22;10909;53.590;10.054;2022-09-02T00:42:18;17.80;51.80
21495;DHT22;10909;53.590;10.054;2022-09-02T00:44:44;17.80;51.70
21495;DHT22;10909;53.590;10.054;2022-09-02T00:47:10;17.80;51.70
21495;DHT22;10909;53.590;10.054;2022-09-02T00:49:38;17.80;51.90
21495;DHT22;10909;53.590;10.054;2022-09-02T00:52:13;17.70;52.00
21495;DHT22;10909;53.590;10.054;2022-09-02T00:54:46;17.70;52.10
21495;DHT22;10909;53.590;10.054;2022-09-02T00:57:14;17.70;52.20
21495;DHT22;10909;53.590;10.054;2022-09-02T01:00:07;17.70;52.10
21495;DHT22;10909;53.590;10.054;2022-09-02T01:02:34;17.70;52.70
21495;DHT22;10909;53.590;10.054;2022-09-02T01:05:08;17.60;52.10
21495;DHT22;10909;53.590;10.054;2022-09-02T01:07:35;17.60;52.50
21495;DHT22;10909;53.590;10.054;2022-09-02T01:10:18;17.60;52.20
21495;DHT22;10909;53.590;10.054;2022-09-02T01:12:44;17.60;52.50
21495;DHT22;10909;53.590;10.054;2022-09-02T01:15:11;17.50;52.40
21495;DHT22;10909;53.590;10.054;2022-09-02T01:17:41;17.50;52.40
21495;DHT22;10909;53.590;10.054;2022-09-02T01:20:11;17.50;52.50
21495;DHT22;10909;53.590;10.054;2022-09-02T01:22:39;17.50;52.70
21495;DHT22;10909;53.590;10.054;2022-09-02T01:25:16;17.50;52.60
21495;DHT22;10909;53.590;10.054;2022-09-02T01:27:42;17.40;52.80
21495;DHT22;10909;53.590;10.054;2022-09-02T01:30:12;17.40;52.60
21495;DHT22;10909;53.590;10.054;2022-09-02T01:32:38;17.40;52.70
21495;DHT22;10909;53.590;10.054;2022-09-02T01:35:05;17.30;52.80
21495;DHT22;10909;53.590;10.054;2022-09-02T01:37:31;17.30;52.90
21495;DHT22;10909;53.590;10.054;2022-09-02T01:39:56;17.30;53.00
21495;DHT22;10909;53.590;10.054;2022-09-02T01:42:23;17.30;53.10
21495;DHT22;10909;53.590;10.054;2022-09-02T01:44:48;17.30;53.00
21495;DHT22;10909;53.590;10.054;2022-09-02T01:47:19;17.20;53.20
21495;DHT22;10909;53.590;10.054;2022-09-02T01:49:45;17.20;53.20
21495;DHT22;10909;53.590;10.054;2022-09-02T01:52:12;17.20;53.20
21495;DHT22;10909;53.590;10.054;2022-09-02T01:54:38;17.10;53.10
21495;DHT22;10909;53.590;10.054;2022-09-02T01:57:04;17.10;53.20
21495;DHT22;10909;53.590;10.054;2022-09-02T01:59:30;17.10;53.30
21495;DHT22;10909;53.590;10.054;2022-09-02T02:01:56;17.10;53.30
21495;DHT22;10909;53.590;10.054;2022-09-02T02:04:21;17.10;53.40
21495;DHT22;10909;53.590;10.054;2022-09-02T02:06:50;17.00;53.50
21495;DHT22;10909;53.590;10.054;2022-09-02T02:09:17;17.00;53.70
21495;DHT22;10909;53.590;10.054;2022-09-02T02:11:43;17.00;53.60
21495;DHT22;10909;53.590;10.054;2022-09-02T02:14:10;17.00;53.70
21495;DHT22;10909;53.590;10.054;2022-09-02T02:16:36;17.00;53.80
21495;DHT22;10909;53.590;10.054;2022-09-02T02:19:02;17.00;53.90
21495;DHT22;10909;53.590;10.054;2022-09-02T02:21:29;16.90;53.80
21495;DHT22;10909;53.590;10.054;2022-09-02T02:23:55;16.90;53.80
21495;DHT22;10909;53.590;10.054;2022-09-02T02:26:21;16.90;54.00
21495;DHT22;10909;53.590;10.054;2022-09-02T02:28:46;16.90;54.00
21495;DHT22;10909;53.590;10.054;2022-09-02T02:31:12;16.90;54.10
21495;DHT22;10909;53.590;10.054;2022-09-02T02:33:38;16.90;54.20
21495;DHT22;10909;53.590;10.054;2022-09-02T02:36:05;16.80;54.20
21495;DHT22;10909;53.590;10.054;2022-09-02T02:38:35;16.80;54.20
21495;DHT22;10909;53.590;10.054;2022-09-02T02:41:05;16.80;54.40
21495;DHT22;10909;53.590;10.054;2022-09-02T02:43:32;16.80;54.30
21495;DHT22;10909;53.590;10.054;2022-09-02T02:45:58;16.80;54.40
21495;DHT22;10909;53.590;10.054;2022-09-02T02:48:24;16.80;54.40
21495;DHT22;10909;53.590;10.054;2022-09-02T02:50:50;16.70;54.50
21495;DHT22;10909;53.590;10.054;2022-09-02T02:53:16;16.70;54.50
21495;DHT22;10909;53.590;10.054;2022-09-02T02:55:42;16.70;54.70
21495;DHT22;10909;53.590;10.054;2022-09-02T02:58:09;16.70;54.60
21495;DHT22;10909;53.590;10.054;2022-09-02T03:00:35;16.60;54.60
21495;DHT22;10909;53.590;10.054;2022-09-02T03:03:07;16.60;54.60
21495;DHT22;10909;53.590;10.054;2022-09-02T03:05:35;16.60;54.90
21495;DHT22;10909;53.590;10.054;2022-09-02T03:08:03;16.60;54.70
21495;DHT22;10909;53.590;10.054;2022-09-02T03:10:30;16.60;54.80
21495;DHT22;10909;53.590;10.054;2022-09-02T03:12:57;16.50;54.90
21495;DHT22;10909;53.590;10.054;2022-09-02T03:15:24;16.50;55.00
21495;DHT22;10909;53.590;10.054;2022-09-02T03:17:51;16.50;55.00
21495;DHT22;10909;53.590;10.054;2022-09-02T03:20:17;16.40;55.00
21495;DHT22;10909;53.590;10.054;2022-09-02T03:22:44;16.40;55.00
21495;DHT22;10909;53.590;10.054;2022-09-02T03:25:13;16.40;55.10
21495;DHT22;10909;53.590;10.054;2022-09-02T03:27:40;16.40;55.20
21495;DHT22;10909;53.590;10.054;2022-09-02T03:30:12;16.30;55.40
21495;DHT22;10909;53.590;10.054;2022-09-02T03:32:38;16.30;55.50
21495;DHT22;10909;53.590;10.054;2022-09-02T03:35:05;16.30;55.40
21495;DHT22;10909;53.590;10.054;2022-09-02T03:37:33;16.30;55.70
21495;DHT22;10909;53.590;10.054;2022-09-02T03:40:02;16.30;55.60
21495;DHT22;10909;53.590;10.054;2022-09-02T03:42:28;16.30;55.70
21495;DHT22;10909;53.590;10.054;2022-09-02T03:44:54;16.30;55.60
21495;DHT22;10909;53.590;10.054;2022-09-02T03:47:19;16.30;55.70
21495;DHT22;10909;53.590;10.054;2022-09-02T03:49:46;16.20;55.70
21495;DHT22;10909;53.590;10.054;2022-09-02T03:52:12;16.20;55.70
21495;DHT22;10909;53.590;10.054;2022-09-02T03:54:37;16.20;55.70
21495;DHT22;10909;53.590;10.054;2022-09-02T03:57:04;16.20;55.80
21495;DHT22;10909;53.590;10.054;2022-09-02T03:59:30;16.20;55.90
21495;DHT22;10909;53.590;10.054;2022-09-02T04:01:56;16.20;55.90
21495;DHT22;10909;53.590;10.054;2022-09-02T04:04:22;16.20;56.00
21495;DHT22;10909;53.590;10.054;2022-09-02T04:06:48;16.20;56.10
21495;DHT22;10909;53.590;10.054;2022-09-02T04:09:14;16.20;56.10
21495;DHT22;10909;53.590;10.054;2022-09-02T04:11:40;16.10;56.00
21495;DHT22;10909;53.590;10.054;2022-09-02T04:14:07;16.10;56.30
21495;DHT22;10909;53.590;10.054;2022-09-02T04:16:34;16.10;56.20
21495;DHT22;10909;53.590;10.054;2022-09-02T04:18:59;16.10;56.20
21495;DHT22;10909;53.590;10.054;2022-09-02T04:21:28;16.10;56.30
21495;DHT22;10909;53.590;10.054;2022-09-02T04:23:56;16.00;56.40
21495;DHT22;10909;53.590;10.054;2022-09-02T04:26:22;16.00;56.40
21495;DHT22;10909;53.590;10.054;2022-09-02T04:28:48;16.00;56.50
21495;DHT22;10909;53.590;10.054;2022-09-02T04:31:16;16.00;56.60
21495;DHT22;10909;53.590;10.054;2022-09-02T04:33:42;16.00;56.70
21495;DHT22;10909;53.590;10.054;2022-09-02T04:36:10;16.00;56.70
21495;DHT22;10909;53.590;10.054;2022-09-02T04:38:36;16.00;56.80
21495;DHT22;10909;53.590;10.054;2022-09-02T04:41:07;16.00;56.70
21495;DHT22;10909;53.590;10.054;2022-09-02T04:43:33;16.00;57.00
21495;DHT22;10909;53.590;10.054;2022-09-02T04:45:59;15.90;56.80
21495;DHT22;10909;53.590;10.054;2022-09-02T04:48:27;15.90;57.00
21495;DHT22;10909;53.590;10.054;2022-09-02T04:50:53;15.90;57.00
21495;DHT22;10909;53.590;10.054;2022-09-02T04:53:19;15.90;57.10
21495;DHT22;10909;53.590;10.054;2022-09-02T04:55:45;15.90;57.10
21495;DHT22;10909;53.590;10.054;2022-09-02T04:58:10;15.90;57.10
21495;DHT22;10909;53.590;10.054;2022-09-02T05:00:37;15.90;57.20
21495;DHT22;10909;53.590;10.054;2022-09-02T05:03:03;15.90;57.20
21495;DHT22;10909;53.590;10.054;2022-09-02T05:05:31;15.90;57.20
21495;DHT22;10909;53.590;10.054;2022-09-02T05:07:57;15.90;57.30
21495;DHT22;10909;53.590;10.054;2022-09-02T05:10:23;15.90;57.40
21495;DHT22;10909;53.590;10.054;2022-09-02T05:12:48;16.00;57.40
21495;DHT22;10909;53.590;10.054;2022-09-02T05:15:14;16.00;57.50
21495;DHT22;10909;53.590;10.054;2022-09-02T05:17:40;16.00;57.50
21495;DHT22;10909;53.590;10.054;2022-09-02T05:20:07;16.00;57.40
21495;DHT22;10909;53.590;10.054;2022-09-02T05:22:35;16.00;57.50
21495;DHT22;10909;53.590;10.054;2022-09-02T05:25:04;16.00;58.10
21495;DHT22;10909;53.590;10.054;2022-09-02T05:27:30;16.00;57.70
21495;DHT22;10909;53.590;10.054;2022-09-02T05:29:57;16.10;57.70
21495;DHT22;10909;53.590;10.054;2022-09-02T05:32:24;16.10;57.90
21495;DHT22;10909;53.590;10.054;2022-09-02T05:34:52;16.10;57.80
21495;DHT22;10909;53.590;10.054;2022-09-02T05:37:18;16.20;57.80
21495;DHT22;10909;53.590;10.054;2022-09-02T05:39:44;16.20;57.90
21495;DHT22;10909;53.590;10.054;2022-09-02T05:42:10;16.20;57.90
21495;DHT22;10909;53.590;10.054;2022-09-02T05:44:36;16.30;57.90
21495;DHT22;10909;53.590;10.054;2022-09-02T05:47:03;16.30;57.80
21495;DHT22;10909;53.590;10.054;2022-09-02T05:49:28;16.30;57.80
21495;DHT22;10909;53.590;10.054;2022-09-02T05:51:59;16.40;57.70
21495;DHT22;10909;53.590;10.054;2022-09-02T05:54:30;16.40;57.70
21495;DHT22;10909;53.590;10.054;2022-09-02T05:56:59;16.50;57.90
21495;DHT22;10909;53.590;10.054;2022-09-02T05:59:28;16.50;57.70
21495;DHT22;10909;53.590;10.054;2022-09-02T06:01:55;16.50;57.70
21495;DHT22;10909;53.590;10.054;2022-09-02T06:04:22;16.50;57.70
21495;DHT22;10909;53.590;10.054;2022-09-02T06:06:48;16.60;57.70
21495;DHT22;10909;53.590;10.054;2022-09-02T06:09:16;16.60;57.70
21495;DHT22;10909;53.590;10.054;2022-09-02T06:11:43;16.60;57.80
21495;DHT22;10909;53.590;10.054;2022-09-02T06:14:15;16.70;57.80
21495;DHT22;10909;53.590;10.054;2022-09-02T06:16:42;16.70;57.80
21495;DHT22;10909;53.590;10.054;2022-09-02T06:19:08;16.80;57.80
21495;DHT22;10909;53.590;10.054;2022-09-02T06:21:36;16.80;57.70
21495;DHT22;10909;53.590;10.054;2022-09-02T06:24:04;16.90;57.80
21495;DHT22;10909;53.590;10.054;2022-09-02T06:26:31;16.90;57.80
21495;DHT22;10909;53.590;10.054;2022-09-02T06:28:57;16.90;57.70
21495;DHT22;10909;53.590;10.054;2022-09-02T06:31:22;17.00;57.70
21495;DHT22;10909;53.590;10.054;2022-09-02T06:33:51;17.00;57.70
21495;DHT22;10909;53.590;10.054;2022-09-02T06:36:19;17.10;57.60
21495;DHT22;10909;53.590;10.054;2022-09-02T06:38:49;17.20;57.60
21495;DHT22;10909;53.590;10.054;2022-09-02T06:41:19;17.20;57.70
21495;DHT22;10909;53.590;10.054;2022-09-02T06:43:48;17.30;57.70
21495;DHT22;10909;53.590;10.054;2022-09-02T06:46:24;17.30;57.50
21495;DHT22;10909;53.590;10.054;2022-09-02T06:48:51;17.40;57.60
21495;DHT22;10909;53.590;10.054;2022-09-02T06:51:22;17.40;57.20
21495;DHT22;10909;53.590;10.054;2022-09-02T06:53:48;17.50;57.30
21495;DHT22;10909;53.590;10.054;2022-09-02T06:56:14;17.50;57.20
21495;DHT22;10909;53.590;10.054;2022-09-02T06:58:40;17.60;57.10
21495;DHT22;10909;53.590;10.054;2022-09-02T07:01:06;17.60;57.10
21495;DHT22;10909;53.590;10.054;2022-09-02T07:03:33;17.70;57.10
21495;DHT22;10909;53.590;10.054;2022-09-02T07:06:17;17.70;57.10
21495;DHT22;10909;53.590;10.054;2022-09-02T07:08:43;17.80;57.10
21495;DHT22;10909;53.590;10.054;2022-09-02T07:11:21;17.90;57.00
21495;DHT22;10909;53.590;10.054;2022-09-02T07:13:47;18.00;57.10
21495;DHT22;10909;53.590;10.054;2022-09-02T07:16:13;18.00;56.90
21495;DHT22;10909;53.590;10.054;2022-09-02T07:18:39;18.10;56.80
21495;DHT22;10909;53.590;10.054;2022-09-02T07:21:08;18.10;56.80
21495;DHT22;10909;53.590;10.054;2022-09-02T07:23:34;18.20;56.80
21495;DHT22;10909;53.590;10.054;2022-09-02T07:25:59;18.30;56.70
21495;DHT22;10909;53.590;10.054;2022-09-02T07:28:25;18.30;56.60
21495;DHT22;10909;53.590;10.054;2022-09-02T07:30:51;18.40;56.50
21495;DHT22;10909;53.590;10.054;2022-09-02T07:33:20;18.50;56.50
21495;DHT22;10909;53.590;10.054;2022-09-02T07:35:47;18.60;56.40
21495;DHT22;10909;53.590;10.054;2022-09-02T07:38:15;18.60;56.40
21495;DHT22;10909;53.590;10.054;2022-09-02T07:40:42;18.70;56.30
21495;DHT22;10909;53.590;10.054;2022-09-02T07:43:10;18.80;56.30
21495;DHT22;10909;53.590;10.054;2022-09-02T07:45:36;18.80;56.20
21495;DHT22;10909;53.590;10.054;2022-09-02T07:48:05;18.90;56.10
21495;DHT22;10909;53.590;10.054;2022-09-02T07:50:33;18.90;56.00
21495;DHT22;10909;53.590;10.054;2022-09-02T07:52:59;19.00;55.90
21495;DHT22;10909;53.590;10.054;2022-09-02T07:55:25;19.10;55.90
21495;DHT22;10909;53.590;10.054;2022-09-02T07:57:52;19.20;55.80
21495;DHT22;10909;53.590;10.054;2022-09-02T08:00:21;19.30;55.70
21495;DHT22;10909;53.590;10.054;2022-09-02T08:02:48;19.40;55.50
21495;DHT22;10909;53.590;10.054;2022-09-02T08:05:14;19.40;55.30
21495;DHT22;10909;53.590;10.054;2022-09-02T08:07:40;19.50;55.20
21495;DHT22;10909;53.590;10.054;2022-09-02T08:10:07;19.60;55.20
21495;DHT22;10909;53.590;10.054;2022-09-02T08:12:36;19.70;55.00
21495;DHT22;10909;53.590;10.054;2022-09-02T08:15:03;19.80;54.90
21495;DHT22;10909;53.590;10.054;2022-09-02T08:17:30;19.80;54.80
21495;DHT22;10909;53.590;10.054;2022-09-02T08:19:55;19.90;55.20
21495;DHT22;10909;53.590;10.054;2022-09-02T08:22:21;20.00;54.40
21495;DHT22;10909;53.590;10.054;2022-09-02T08:24:48;20.10;54.30
21495;DHT22;10909;53.590;10.054;2022-09-02T08:27:14;20.10;54.10
21495;DHT22;10909;53.590;10.054;2022-09-02T08:29:40;20.20;54.00
21495;DHT22;10909;53.590;10.054;2022-09-02T08:32:06;20.30;53.90
21495;DHT22;10909;53.590;10.054;2022-09-02T08:34:31;20.40;53.80
21495;DHT22;10909;53.590;10.054;2022-09-02T08:36:58;20.40;53.60
21495;DHT22;10909;53.590;10.054;2022-09-02T08:39:24;20.50;53.50
21495;DHT22;10909;53.590;10.054;2022-09-02T08:41:53;20.60;53.40
21495;DHT22;10909;53.590;10.054;2022-09-02T08:44:23;20.60;53.30
21495;DHT22;10909;53.590;10.054;2022-09-02T08:46:52;20.70;53.10
21495;DHT22;10909;53.590;10.054;2022-09-02T08:49:34;20.80;53.00
21495;DHT22;10909;53.590;10.054;2022-09-02T08:52:04;20.90;52.70
21495;DHT22;10909;53.590;10.054;2022-09-02T08:54:45;20.90;52.70
21495;DHT22;10909;53.590;10.054;2022-09-02T08:57:12;21.00;52.40
21495;DHT22;10909;53.590;10.054;2022-09-02T08:59:38;21.10;52.50
21495;DHT22;10909;53.590;10.054;2022-09-02T09:05:10;21.20;52.30
21495;DHT22;10909;53.590;10.054;2022-09-02T09:08:03;21.30;52.00
21495;DHT22;10909;53.590;10.054;2022-09-02T09:10:51;21.30;52.00
21495;DHT22;10909;53.590;10.054;2022-09-02T09:18:47;21.50;51.90
21495;DHT22;10909;53.590;10.054;2022-09-02T09:21:15;21.70;51.60
21495;DHT22;10909;53.590;10.054;2022-09-02T09:23:40;21.70;51.60
21495;DHT22;10909;53.590;10.054;2022-09-02T09:26:16;21.80;51.50
21495;DHT22;10909;53.590;10.054;2022-09-02T09:28:45;21.80;51.10
21495;DHT22;10909;53.590;10.054;2022-09-02T09:31:27;21.90;51.20
21495;DHT22;10909;53.590;10.054;2022-09-02T09:34:00;22.00;50.80
21495;DHT22;10909;53.590;10.054;2022-09-02T09:36:43;22.00;50.90
21495;DHT22;10909;53.590;10.054;2022-09-02T09:39:28;22.10;50.60
21495;DHT22;10909;53.590;10.054;2022-09-02T09:42:14;22.20;50.60
21495;DHT22;10909;53.590;10.054;2022-09-02T09:47:14;22.30;50.40
21495;DHT22;10909;53.590;10.054;2022-09-02T09:49:40;22.30;50.20
21495;DHT22;10909;53.590;10.054;2022-09-02T09:52:06;22.40;50.00
21495;DHT22;10909;53.590;10.054;2022-09-02T09:54:32;22.40;49.90
21495;DHT22;10909;53.590;10.054;2022-09-02T09:57:19;22.40;49.70
21495;DHT22;10909;53.590;10.054;2022-09-02T09:59:46;22.50;49.40
21495;DHT22;10909;53.590;10.054;2022-09-02T10:02:25;22.50;49.50
21495;DHT22;10909;53.590;10.054;2022-09-02T10:04:53;22.50;49.30
21495;DHT22;10909;53.590;10.054;2022-09-02T10:07:40;22.50;49.40
21495;DHT22;10909;53.590;10.054;2022-09-02T10:10:21;22.60;49.00
21495;DHT22;10909;53.590;10.054;2022-09-02T10:12:50;22.60;49.00
21495;DHT22;10909;53.590;10.054;2022-09-02T10:15:29;22.70;49.00
21495;DHT22;10909;53.590;10.054;2022-09-02T10:21:00;22.80;48.40
21495;DHT22;10909;53.590;10.054;2022-09-02T10:23:58;22.80;48.30
21495;DHT22;10909;53.590;10.054;2022-09-02T10:29:26;22.80;48.40
21495;DHT22;10909;53.590;10.054;2022-09-02T10:34:45;23.00;48.00
21495;DHT22;10909;53.590;10.054;2022-09-02T10:47:36;23.40;47.90
21495;DHT22;10909;53.590;10.054;2022-09-02T10:51:01;23.50;47.60
21495;DHT22;10909;53.590;10.054;2022-09-02T10:58:37;23.80;46.70
21495;DHT22;10909;53.590;10.054;2022-09-02T11:01:07;23.90;46.60
21495;DHT22;10909;53.590;10.054;2022-09-02T11:04:01;24.00;46.50
21495;DHT22;10909;53.590;10.054;2022-09-02T11:06:30;24.10;45.80
21495;DHT22;10909;53.590;10.054;2022-09-02T11:09:13;24.20;46.10
21495;DHT22;10909;53.590;10.054;2022-09-02T11:11:50;24.20;45.50
21495;DHT22;10909;53.590;10.054;2022-09-02T11:14:27;24.30;45.60
21495;DHT22;10909;53.590;10.054;2022-09-02T11:19:32;24.40;45.40
21495;DHT22;10909;53.590;10.054;2022-09-02T11:27:33;24.70;44.70
21495;DHT22;10909;53.590;10.054;2022-09-02T11:30:05;24.80;44.60
21495;DHT22;10909;53.590;10.054;2022-09-02T11:32:38;24.80;44.50
21495;DHT22;10909;53.590;10.054;2022-09-02T11:35:09;24.90;44.30
21495;DHT22;10909;53.590;10.054;2022-09-02T11:38:00;25.00;44.00
21495;DHT22;10909;53.590;10.054;2022-09-02T11:43:48;25.10;43.30
21495;DHT22;10909;53.590;10.054;2022-09-02T11:52:16;25.10;43.10
21495;DHT22;10909;53.590;10.054;2022-09-02T11:54:47;25.10;43.40
21495;DHT22;10909;53.590;10.054;2022-09-02T11:57:22;25.10;43.30
21495;DHT22;10909;53.590;10.054;2022-09-02T12:08:55;25.30;42.60
21495;DHT22;10909;53.590;10.054;2022-09-02T12:11:03;25.40;42.30
21495;DHT22;10909;53.590;10.054;2022-09-02T12:13:46;25.40;42.40
21495;DHT22;10909;53.590;10.054;2022-09-02T12:21:24;25.50;42.00
21495;DHT22;10909;53.590;10.054;2022-09-02T12:27:21;25.60;42.10
21495;DHT22;10909;53.590;10.054;2022-09-02T12:31:49;25.70;41.50
21495;DHT22;10909;53.590;10.054;2022-09-02T12:36:57;25.70;41.20
21495;DHT22;10909;53.590;10.054;2022-09-02T12:41:55;25.80;41.40
21495;DHT22;10909;53.590;10.054;2022-09-02T12:44:51;25.80;40.80
21495;DHT22;10909;53.590;10.054;2022-09-02T12:47:39;25.80;40.70
21495;DHT22;10909;53.590;10.054;2022-09-02T12:53:05;25.80;40.60
21495;DHT22;10909;53.590;10.054;2022-09-02T12:55:33;25.80;40.90
21495;DHT22;10909;53.590;10.054;2022-09-02T12:58:10;25.80;40.90
21495;DHT22;10909;53.590;10.054;2022-09-02T13:26:20;27.40;39.20
21495;DHT22;10909;53.590;10.054;2022-09-02T13:28:59;27.50;38.70
21495;DHT22;10909;53.590;10.054;2022-09-02T13:31:30;27.70;39.10
21495;DHT22;10909;53.590;10.054;2022-09-02T13:34:05;28.00;39.90
21495;DHT22;10909;53.590;10.054;2022-09-02T13:36:40;28.50;40.00
21495;DHT22;10909;53.590;10.054;2022-09-02T13:39:23;29.20;39.70
21495;DHT22;10909;53.590;10.054;2022-09-02T13:41:49;29.80;38.00
21495;DHT22;10909;53.590;10.054;2022-09-02T13:44:23;30.30;38.30
21495;DHT22;10909;53.590;10.054;2022-09-02T13:46:53;30.80;37.20
21495;DHT22;10909;53.590;10.054;2022-09-02T13:49:35;31.30;36.70
21495;DHT22;10909;53.590;10.054;2022-09-02T13:52:04;31.70;35.40
21495;DHT22;10909;53.590;10.054;2022-09-02T13:54:35;32.00;35.10
21495;DHT22;10909;53.590;10.054;2022-09-02T13:57:04;32.10;33.90
21495;DHT22;10909;53.590;10.054;2022-09-02T13:59:39;32.00;33.70
21495;DHT22;10909;53.590;10.054;2022-09-02T14:02:35;32.10;33.60
21495;DHT22;10909;53.590;10.054;2022-09-02T14:05:16;32.40;33.10
21495;DHT22;10909;53.590;10.054;2022-09-02T14:07:47;32.70;33.10
21495;DHT22;10909;53.590;10.054;2022-09-02T14:10:18;32.90;32.60
21495;DHT22;10909;53.590;10.054;2022-09-02T14:12:45;33.10;32.20
21495;DHT22;10909;53.590;10.054;2022-09-02T14:15:14;33.00;31.30
21495;DHT22;10909;53.590;10.054;2022-09-02T14:17:40;32.80;30.50
21495;DHT22;10909;53.590;10.054;2022-09-02T14:22:39;32.70;30.90
21495;DHT22;10909;53.590;10.054;2022-09-02T14:25:14;32.70;30.60
21495;DHT22;10909;53.590;10.054;2022-09-02T14:27:48;32.60;30.00
21495;DHT22;10909;53.590;10.054;2022-09-02T14:30:30;32.30;29.70
21495;DHT22;10909;53.590;10.054;2022-09-02T14:33:36;32.00;29.60
21495;DHT22;10909;53.590;10.054;2022-09-02T14:36:31;31.60;29.70
21495;DHT22;10909;53.590;10.054;2022-09-02T14:39:13;31.50;30.30
21495;DHT22;10909;53.590;10.054;2022-09-02T14:41:45;31.60;30.60
21495;DHT22;10909;53.590;10.054;2022-09-02T14:44:31;31.90;30.60
21495;DHT22;10909;53.590;10.054;2022-09-02T14:47:04;31.90;29.90
21495;DHT22;10909;53.590;10.054;2022-09-02T14:49:44;31.80;29.70
21495;DHT22;10909;53.590;10.054;2022-09-02T14:52:18;31.60;29.30
21495;DHT22;10909;53.590;10.054;2022-09-02T14:54:49;31.40;29.30
21495;DHT22;10909;53.590;10.054;2022-09-02T14:59:46;31.10;29.60
21495;DHT22;10909;53.590;10.054;2022-09-02T15:04:54;31.10;29.70
21495;DHT22;10909;53.590;10.054;2022-09-02T15:07:21;31.30;30.30
21495;DHT22;10909;53.590;10.054;2022-09-02T15:09:47;31.60;30.60
21495;DHT22;10909;53.590;10.054;2022-09-02T15:12:16;32.00;30.70
21495;DHT22;10909;53.590;10.054;2022-09-02T15:14:44;32.50;30.40
21495;DHT22;10909;53.590;10.054;2022-09-02T15:17:14;32.90;30.00
21495;DHT22;10909;53.590;10.054;2022-09-02T15:19:40;33.10;29.20
21495;DHT22;10909;53.590;10.054;2022-09-02T15:22:05;33.10;28.70
21495;DHT22;10909;53.590;10.054;2022-09-02T15:24:31;32.80;28.30
21495;DHT22;10909;53.590;10.054;2022-09-02T15:26:57;32.50;28.60
21495;DHT22;10909;53.590;10.054;2022-09-02T15:29:22;32.50;29.10
21495;DHT22;10909;53.590;10.054;2022-09-02T15:31:52;32.70;29.40
21495;DHT22;10909;53.590;10.054;2022-09-02T15:34:20;32.90;29.00
21495;DHT22;10909;53.590;10.054;2022-09-02T15:36:46;33.10;28.80
21495;DHT22;10909;53.590;10.054;2022-09-02T15:39:11;33.20;28.60
21495;DHT22;10909;53.590;10.054;2022-09-02T15:41:37;33.10;28.30
21495;DHT22;10909;53.590;10.054;2022-09-02T15:44:06;32.90;28.20
21495;DHT22;10909;53.590;10.054;2022-09-02T15:46:32;32.50;27.80
21495;DHT22;10909;53.590;10.054;2022-09-02T15:49:06;32.20;28.00
21495;DHT22;10909;53.590;10.054;2022-09-02T15:51:33;31.80;28.00
21495;DHT22;10909;53.590;10.054;2022-09-02T15:54:03;31.50;28.10
21495;DHT22;10909;53.590;10.054;2022-09-02T15:56:31;31.20;28.10
21495;DHT22;10909;53.590;10.054;2022-09-02T15:58:59;30.90;28.30
21495;DHT22;10909;53.590;10.054;2022-09-02T16:01:30;30.50;28.40
21495;DHT22;10909;53.590;10.054;2022-09-02T16:03:56;30.20;28.50
21495;DHT22;10909;53.590;10.054;2022-09-02T16:06:23;29.80;28.70
21495;DHT22;10909;53.590;10.054;2022-09-02T16:08:50;29.60;29.10
21495;DHT22;10909;53.590;10.054;2022-09-02T16:11:17;29.20;29.30
21495;DHT22;10909;53.590;10.054;2022-09-02T16:13:43;29.10;29.60
21495;DHT22;10909;53.590;10.054;2022-09-02T16:16:11;28.80;29.70
21495;DHT22;10909;53.590;10.054;2022-09-02T16:18:39;28.60;29.90
21495;DHT22;10909;53.590;10.054;2022-09-02T16:21:07;28.40;30.00
21495;DHT22;10909;53.590;10.054;2022-09-02T16:23:34;28.20;30.10
21495;DHT22;10909;53.590;10.054;2022-09-02T16:26:14;28.00;30.30
21495;DHT22;10909;53.590;10.054;2022-09-02T16:28:43;27.90;30.50
21495;DHT22;10909;53.590;10.054;2022-09-02T16:31:10;27.80;30.60
21495;DHT22;10909;53.590;10.054;2022-09-02T16:33:36;27.70;30.70
21495;DHT22;10909;53.590;10.054;2022-09-02T16:36:06;27.60;30.80
21495;DHT22;10909;53.590;10.054;2022-09-02T16:38:31;27.50;30.90
21495;DHT22;10909;53.590;10.054;2022-09-02T16:40:59;27.50;30.90
21495;DHT22;10909;53.590;10.054;2022-09-02T16:43:28;27.40;31.00
21495;DHT22;10909;53.590;10.054;2022-09-02T16:45:54;27.40;31.00
21495;DHT22;10909;53.590;10.054;2022-09-02T16:48:21;27.30;31.00
21495;DHT22;10909;53.590;10.054;2022-09-02T16:50:48;27.30;31.20
21495;DHT22;10909;53.590;10.054;2022-09-02T16:53:14;27.20;31.10
21495;DHT22;10909;53.590;10.054;2022-09-02T16:55:42;27.10;31.30
21495;DHT22;10909;53.590;10.054;2022-09-02T16:58:09;27.00;31.20
21495;DHT22;10909;53.590;10.054;2022-09-02T17:00:36;26.90;31.80
21495;DHT22;10909;53.590;10.054;2022-09-02T17:03:14;26.70;31.40
21495;DHT22;10909;53.590;10.054;2022-09-02T17:05:39;26.60;31.40
21495;DHT22;10909;53.590;10.054;2022-09-02T17:08:05;26.50;31.50
21495;DHT22;10909;53.590;10.054;2022-09-02T17:10:33;26.40;31.60
21495;DHT22;10909;53.590;10.054;2022-09-02T17:12:59;26.40;31.70
21495;DHT22;10909;53.590;10.054;2022-09-02T17:15:26;26.30;31.70
21495;DHT22;10909;53.590;10.054;2022-09-02T17:17:53;26.30;31.80
21495;DHT22;10909;53.590;10.054;2022-09-02T17:20:19;26.20;31.90
21495;DHT22;10909;53.590;10.054;2022-09-02T17:22:44;26.10;32.00